Briefing drone pour Saint-just-saint-rambert

Rechercher une autre localisation

Conditions de vol :


Nous sommes le : Samedi 31 juillet 2021
Il est 12:36 UTC (14:36 LT)

Lever de soleil : 03:59 UTC (05:59 LT)
Coucher de soleil : 19:38 UTC (21:38 LT)

Météo

L'essentiel des conditions de vol

VIGILANCE MÉTÉO FRANCE - Loire (42)
Vigilance Jaune : Orages
CARTES DES FRONTS
METAR de LFMH
LFMH 311230Z AUTO 36006KT 300V040 9999 FEW034 BKN110 BKN150 21/13 Q1013

Date d'émission: 31/07/2021
Heure d'émission: 12:30 UTC
Vent: 360° (variable du 300° au 040°) pour 6 KT (11 km/h)
Visibilité horizontale: > 10 km
Plafond :
- Peu de nuages à 3400ft (1036m)
- Nuages morcelés à 11000ft (3353m)
- Nuages morcelés à 15000ft (4572m)
Température: 21 °C
Point de rosée: 13 °C
Humidité: 60%
Pression (QNH): 1013 hPa
TAF de LFMH
LFMH 161901Z 1619/1712 CNL

Conditions prévues :

Heure d'émission : Bulletin éffectué le 16 à 19:00 UTC
Prévision : Valide du 16 a 19:00 UTC au 17 a 12:00 UTC
Nuages : à 0ft (0 m)
WEBCAM POUR SAINT-JUST-SAINT-RAMBERT

Réglementation

Voler en sécurité

CARTES AERONAUTIQUE 1/500.000
CARTES VAC (LFMH)
SUP AIP




Chargement des AIP...
NOTAM (SAINT-JUST-SAINT-RAMBERT + Terrain à proximité / FIR )




Chargement des NOTAMS...
CONTACT PREFECTURE 42


Avertissement : Les données mises à disposition sont indicatives. Oxygène Drone ne pourra être tenu responsable de dégâts causés aux biens et aux personnes.